aviador You're here:

CYMT Decoded Metar

CHIBOUGAMAU CHAP in QC, CANADA
Report Time2017-11-24 02:02:00
UTC Time2017-11-24 02:10:52
Flight Rules ifr IFR
Wind290° at 11 Gusting to 18 kt
W.Decomp.*RWY 22: 0.8 kt HW 11.0 kt RCW
W.Rank290° ranks 4
Current wind is above 290° avg. (7.5)
Visibility3219 m
Phenomena:Light Snow
Clouds:Overcast 036 Hf
Expected CloudBase > 800 ft AGL from Temp-Dew spread
Ceiling3,600 ft
Temp-10°C (ISA -22)
Dew Point-12°C (85% RH)
AAT-17.2°C
QNH1002 hPa
Density Alt-1,112 ft
Elevation1,270 ft
Report Wrong Elevation
Raw Report
SPECI CYMT 240202Z AUTO 29011G18KT 2SM -SN OVC036 M10/M12 A2960 RMK
SLP054=

Extra information for CYMT:More info

Metar Taf Metar & Taf Last 4 Metars F.Rules Stats Wind Profile Meteogram Temp Stats Airport Information Weather charts Add Link Nearby VenuesMetar ALERT Operation Metar Decoded Social comments